Greenleafton, Minnesota
Current Conditions -  °F | °C
As of 12:15 AM on Thursday 23 Oct 2014 (Local Time) from KFKA Reporting Station
Broken Clouds Broken Clouds  
Wind Chill: 45°   Ceiling: 4200
Heat Index: 49°   Visibility: 10mi
Dew Point: 39°   Wind: 9mph
Humidity: 69%   Direction: 180°S
Pressure: 30.12"   Gusts: NA
Location:  43.6343°N, 92.1426°W
Report Text: KFKA 230515Z AUTO 18008KT 10SM BKN042 10/04 A3012 RMK AO2 T00950041
Loading
Personal Weather Stations






























Interactive Weather Map
Tropical Storm Tracking
New forecast layout! Learn more

10-Day Weather Forecast

Advertisements
Track Severe Weather on mobile